sensor_id;sensor_type;location;lat;lon;timestamp;P1;durP1;ratioP1;P2;durP2;ratioP2
18853;SDS011;9556;49.374;19.446;2023-04-07T00:01:58;11.60;;;7.30;;
18853;SDS011;9556;49.374;19.446;2023-04-07T00:04:25;12.10;;;7.27;;
18853;SDS011;9556;49.374;19.446;2023-04-07T00:06:52;9.83;;;6.77;;
18853;SDS011;9556;49.374;19.446;2023-04-07T00:09:19;9.67;;;6.50;;
18853;SDS011;9556;49.374;19.446;2023-04-07T00:11:46;11.00;;;6.60;;
18853;SDS011;9556;49.374;19.446;2023-04-07T00:14:14;10.27;;;6.50;;
18853;SDS011;9556;49.374;19.446;2023-04-07T00:16:41;10.97;;;6.93;;
18853;SDS011;9556;49.374;19.446;2023-04-07T00:19:09;9.43;;;6.33;;
18853;SDS011;9556;49.374;19.446;2023-04-07T00:21:36;9.67;;;6.03;;
18853;SDS011;9556;49.374;19.446;2023-04-07T00:24:04;9.83;;;6.37;;
18853;SDS011;9556;49.374;19.446;2023-04-07T00:26:31;10.30;;;6.63;;
18853;SDS011;9556;49.374;19.446;2023-04-07T00:28:58;8.53;;;6.20;;
18853;SDS011;9556;49.374;19.446;2023-04-07T00:31:26;9.87;;;6.20;;
18853;SDS011;9556;49.374;19.446;2023-04-07T00:33:53;7.67;;;5.60;;
18853;SDS011;9556;49.374;19.446;2023-04-07T00:36:22;8.67;;;5.93;;
18853;SDS011;9556;49.374;19.446;2023-04-07T00:38:50;10.23;;;6.37;;
18853;SDS011;9556;49.374;19.446;2023-04-07T00:41:17;9.40;;;6.17;;
18853;SDS011;9556;49.374;19.446;2023-04-07T00:43:44;9.07;;;6.17;;
18853;SDS011;9556;49.374;19.446;2023-04-07T00:46:11;9.53;;;6.20;;
18853;SDS011;9556;49.374;19.446;2023-04-07T00:48:38;9.70;;;6.27;;
18853;SDS011;9556;49.374;19.446;2023-04-07T00:51:05;9.47;;;6.57;;
18853;SDS011;9556;49.374;19.446;2023-04-07T00:53:34;11.23;;;6.70;;
18853;SDS011;9556;49.374;19.446;2023-04-07T00:56:01;10.57;;;7.20;;
18853;SDS011;9556;49.374;19.446;2023-04-07T00:58:28;11.13;;;7.50;;
18853;SDS011;9556;49.374;19.446;2023-04-07T01:00:57;12.77;;;8.40;;
18853;SDS011;9556;49.374;19.446;2023-04-07T01:03:28;11.27;;;7.93;;
18853;SDS011;9556;49.374;19.446;2023-04-07T01:05:58;11.07;;;6.90;;
18853;SDS011;9556;49.374;19.446;2023-04-07T01:08:27;9.60;;;6.27;;
18853;SDS011;9556;49.374;19.446;2023-04-07T01:10:59;10.10;;;6.20;;
18853;SDS011;9556;49.374;19.446;2023-04-07T01:13:30;10.67;;;6.40;;
18853;SDS011;9556;49.374;19.446;2023-04-07T01:15:59;9.33;;;6.23;;
18853;SDS011;9556;49.374;19.446;2023-04-07T01:18:28;10.07;;;6.60;;
18853;SDS011;9556;49.374;19.446;2023-04-07T01:20:59;8.70;;;6.10;;
18853;SDS011;9556;49.374;19.446;2023-04-07T01:23:30;9.97;;;6.53;;
18853;SDS011;9556;49.374;19.446;2023-04-07T01:26:16;14.20;;;8.00;;
18853;SDS011;9556;49.374;19.446;2023-04-07T01:31:39;14.40;;;8.80;;
18853;SDS011;9556;49.374;19.446;2023-04-07T01:34:07;10.13;;;6.93;;
18853;SDS011;9556;49.374;19.446;2023-04-07T01:36:35;10.33;;;6.40;;
18853;SDS011;9556;49.374;19.446;2023-04-07T01:39:02;10.13;;;6.60;;
18853;SDS011;9556;49.374;19.446;2023-04-07T01:41:30;10.63;;;6.73;;
18853;SDS011;9556;49.374;19.446;2023-04-07T01:43:57;10.87;;;7.03;;
18853;SDS011;9556;49.374;19.446;2023-04-07T01:46:25;10.43;;;6.80;;
18853;SDS011;9556;49.374;19.446;2023-04-07T01:48:53;10.63;;;7.07;;
18853;SDS011;9556;49.374;19.446;2023-04-07T01:51:21;10.87;;;6.73;;
18853;SDS011;9556;49.374;19.446;2023-04-07T01:53:51;9.77;;;6.20;;
18853;SDS011;9556;49.374;19.446;2023-04-07T01:56:18;9.87;;;5.67;;
18853;SDS011;9556;49.374;19.446;2023-04-07T01:58:46;8.70;;;5.90;;
18853;SDS011;9556;49.374;19.446;2023-04-07T02:01:13;7.97;;;5.57;;
18853;SDS011;9556;49.374;19.446;2023-04-07T02:03:42;10.50;;;6.50;;
18853;SDS011;9556;49.374;19.446;2023-04-07T02:06:12;12.00;;;6.60;;
18853;SDS011;9556;49.374;19.446;2023-04-07T02:08:41;15.80;;;8.47;;
18853;SDS011;9556;49.374;19.446;2023-04-07T02:11:12;15.80;;;9.10;;
18853;SDS011;9556;49.374;19.446;2023-04-07T02:13:40;11.43;;;6.70;;
18853;SDS011;9556;49.374;19.446;2023-04-07T02:16:08;9.93;;;6.17;;
18853;SDS011;9556;49.374;19.446;2023-04-07T02:18:36;10.20;;;6.50;;
18853;SDS011;9556;49.374;19.446;2023-04-07T02:21:03;9.27;;;6.03;;
18853;SDS011;9556;49.374;19.446;2023-04-07T02:23:34;8.33;;;5.83;;
18853;SDS011;9556;49.374;19.446;2023-04-07T02:26:02;8.73;;;5.57;;
18853;SDS011;9556;49.374;19.446;2023-04-07T02:28:29;8.93;;;5.60;;
18853;SDS011;9556;49.374;19.446;2023-04-07T02:30:56;9.93;;;6.10;;
18853;SDS011;9556;49.374;19.446;2023-04-07T02:33:23;9.27;;;5.87;;
18853;SDS011;9556;49.374;19.446;2023-04-07T02:35:50;9.47;;;6.10;;
18853;SDS011;9556;49.374;19.446;2023-04-07T02:38:17;9.07;;;5.97;;
18853;SDS011;9556;49.374;19.446;2023-04-07T02:40:46;8.03;;;5.70;;
18853;SDS011;9556;49.374;19.446;2023-04-07T02:43:14;8.77;;;5.80;;
18853;SDS011;9556;49.374;19.446;2023-04-07T02:45:43;9.37;;;5.70;;
18853;SDS011;9556;49.374;19.446;2023-04-07T02:48:10;9.23;;;6.20;;
18853;SDS011;9556;49.374;19.446;2023-04-07T02:50:37;8.47;;;5.60;;
18853;SDS011;9556;49.374;19.446;2023-04-07T02:53:05;8.87;;;5.77;;
18853;SDS011;9556;49.374;19.446;2023-04-07T02:55:33;9.13;;;6.17;;
18853;SDS011;9556;49.374;19.446;2023-04-07T02:58:01;8.97;;;6.37;;
18853;SDS011;9556;49.374;19.446;2023-04-07T03:00:28;7.93;;;5.80;;
18853;SDS011;9556;49.374;19.446;2023-04-07T03:02:56;8.60;;;6.07;;
18853;SDS011;9556;49.374;19.446;2023-04-07T03:05:23;8.87;;;6.17;;
18853;SDS011;9556;49.374;19.446;2023-04-07T03:07:50;8.30;;;5.67;;
18853;SDS011;9556;49.374;19.446;2023-04-07T03:10:17;8.13;;;5.40;;
18853;SDS011;9556;49.374;19.446;2023-04-07T03:12:45;7.70;;;5.50;;
18853;SDS011;9556;49.374;19.446;2023-04-07T03:15:13;7.57;;;4.90;;
18853;SDS011;9556;49.374;19.446;2023-04-07T03:17:40;8.07;;;5.13;;
18853;SDS011;9556;49.374;19.446;2023-04-07T03:20:08;8.13;;;5.80;;
18853;SDS011;9556;49.374;19.446;2023-04-07T03:22:35;7.30;;;5.07;;
18853;SDS011;9556;49.374;19.446;2023-04-07T03:25:02;7.73;;;5.10;;
18853;SDS011;9556;49.374;19.446;2023-04-07T03:27:29;7.33;;;5.03;;
18853;SDS011;9556;49.374;19.446;2023-04-07T03:29:57;7.67;;;5.27;;
18853;SDS011;9556;49.374;19.446;2023-04-07T03:32:25;7.87;;;5.17;;
18853;SDS011;9556;49.374;19.446;2023-04-07T03:34:52;7.47;;;5.13;;
18853;SDS011;9556;49.374;19.446;2023-04-07T03:37:19;8.40;;;5.50;;
18853;SDS011;9556;49.374;19.446;2023-04-07T03:39:47;7.40;;;5.20;;
18853;SDS011;9556;49.374;19.446;2023-04-07T03:42:14;7.73;;;5.40;;
18853;SDS011;9556;49.374;19.446;2023-04-07T03:44:42;6.97;;;4.97;;
18853;SDS011;9556;49.374;19.446;2023-04-07T03:47:09;7.70;;;5.13;;
18853;SDS011;9556;49.374;19.446;2023-04-07T03:49:38;8.97;;;5.50;;
18853;SDS011;9556;49.374;19.446;2023-04-07T03:52:05;8.80;;;5.63;;
18853;SDS011;9556;49.374;19.446;2023-04-07T03:54:32;6.97;;;5.03;;
18853;SDS011;9556;49.374;19.446;2023-04-07T03:57:00;8.47;;;5.23;;
18853;SDS011;9556;49.374;19.446;2023-04-07T03:59:27;7.80;;;5.70;;
18853;SDS011;9556;49.374;19.446;2023-04-07T04:01:54;7.47;;;5.27;;
18853;SDS011;9556;49.374;19.446;2023-04-07T04:04:21;7.73;;;5.57;;
18853;SDS011;9556;49.374;19.446;2023-04-07T04:06:50;7.40;;;5.10;;
18853;SDS011;9556;49.374;19.446;2023-04-07T04:09:17;6.57;;;4.77;;
18853;SDS011;9556;49.374;19.446;2023-04-07T04:11:45;7.67;;;5.03;;
18853;SDS011;9556;49.374;19.446;2023-04-07T04:14:12;7.97;;;5.30;;
18853;SDS011;9556;49.374;19.446;2023-04-07T04:16:39;7.83;;;5.00;;
18853;SDS011;9556;49.374;19.446;2023-04-07T04:19:07;8.93;;;5.13;;
18853;SDS011;9556;49.374;19.446;2023-04-07T04:21:34;6.93;;;4.87;;
18853;SDS011;9556;49.374;19.446;2023-04-07T04:24:03;6.87;;;4.63;;
18853;SDS011;9556;49.374;19.446;2023-04-07T04:26:30;7.77;;;4.90;;
18853;SDS011;9556;49.374;19.446;2023-04-07T04:28:57;7.17;;;5.13;;
18853;SDS011;9556;49.374;19.446;2023-04-07T04:31:24;7.27;;;4.90;;
18853;SDS011;9556;49.374;19.446;2023-04-07T04:33:52;9.97;;;5.70;;
18853;SDS011;9556;49.374;19.446;2023-04-07T04:36:19;14.63;;;8.77;;
18853;SDS011;9556;49.374;19.446;2023-04-07T04:38:46;9.87;;;6.47;;
18853;SDS011;9556;49.374;19.446;2023-04-07T04:41:14;10.23;;;6.60;;
18853;SDS011;9556;49.374;19.446;2023-04-07T04:43:42;9.43;;;6.07;;
18853;SDS011;9556;49.374;19.446;2023-04-07T04:46:09;8.23;;;5.30;;
18853;SDS011;9556;49.374;19.446;2023-04-07T04:48:36;7.63;;;4.83;;
18853;SDS011;9556;49.374;19.446;2023-04-07T04:51:03;8.17;;;5.53;;
18853;SDS011;9556;49.374;19.446;2023-04-07T04:53:31;6.63;;;4.83;;
18853;SDS011;9556;49.374;19.446;2023-04-07T04:55:58;7.33;;;5.23;;
18853;SDS011;9556;49.374;19.446;2023-04-07T04:58:27;7.60;;;4.80;;
18853;SDS011;9556;49.374;19.446;2023-04-07T05:00:54;6.33;;;4.33;;
18853;SDS011;9556;49.374;19.446;2023-04-07T05:03:22;6.77;;;4.70;;
18853;SDS011;9556;49.374;19.446;2023-04-07T05:05:50;7.03;;;4.60;;
18853;SDS011;9556;49.374;19.446;2023-04-07T05:08:17;6.67;;;4.70;;
18853;SDS011;9556;49.374;19.446;2023-04-07T05:10:45;5.93;;;4.37;;
18853;SDS011;9556;49.374;19.446;2023-04-07T05:13:12;6.70;;;4.80;;
18853;SDS011;9556;49.374;19.446;2023-04-07T05:15:41;5.87;;;4.17;;
18853;SDS011;9556;49.374;19.446;2023-04-07T05:18:08;6.03;;;4.10;;
18853;SDS011;9556;49.374;19.446;2023-04-07T05:20:35;9.13;;;4.40;;
18853;SDS011;9556;49.374;19.446;2023-04-07T05:23:02;7.03;;;4.70;;
18853;SDS011;9556;49.374;19.446;2023-04-07T05:25:29;5.23;;;4.10;;
18853;SDS011;9556;49.374;19.446;2023-04-07T05:27:57;7.07;;;4.90;;
18853;SDS011;9556;49.374;19.446;2023-04-07T05:30:24;7.60;;;4.93;;
18853;SDS011;9556;49.374;19.446;2023-04-07T05:32:53;7.43;;;5.13;;
18853;SDS011;9556;49.374;19.446;2023-04-07T05:35:20;7.73;;;4.90;;
18853;SDS011;9556;49.374;19.446;2023-04-07T05:37:48;6.87;;;4.73;;
18853;SDS011;9556;49.374;19.446;2023-04-07T05:40:15;6.70;;;4.60;;
18853;SDS011;9556;49.374;19.446;2023-04-07T05:42:42;12.30;;;4.40;;
18853;SDS011;9556;49.374;19.446;2023-04-07T05:45:09;6.83;;;4.70;;
18853;SDS011;9556;49.374;19.446;2023-04-07T05:47:37;7.10;;;4.30;;
18853;SDS011;9556;49.374;19.446;2023-04-07T05:50:05;7.80;;;4.50;;
18853;SDS011;9556;49.374;19.446;2023-04-07T05:52:33;10.70;;;4.20;;
18853;SDS011;9556;49.374;19.446;2023-04-07T05:55:00;7.90;;;4.90;;
18853;SDS011;9556;49.374;19.446;2023-04-07T05:57:27;6.20;;;4.27;;
18853;SDS011;9556;49.374;19.446;2023-04-07T05:59:54;5.63;;;4.10;;
18853;SDS011;9556;49.374;19.446;2023-04-07T06:02:22;6.47;;;4.17;;
18853;SDS011;9556;49.374;19.446;2023-04-07T06:04:49;14.80;;;4.13;;
18853;SDS011;9556;49.374;19.446;2023-04-07T06:07:18;6.17;;;4.00;;
18853;SDS011;9556;49.374;19.446;2023-04-07T06:09:45;6.93;;;4.30;;
18853;SDS011;9556;49.374;19.446;2023-04-07T06:12:12;12.73;;;4.40;;
18853;SDS011;9556;49.374;19.446;2023-04-07T06:14:41;11.07;;;4.23;;
18853;SDS011;9556;49.374;19.446;2023-04-07T06:17:08;11.20;;;4.67;;
18853;SDS011;9556;49.374;19.446;2023-04-07T06:19:35;10.17;;;4.53;;
18853;SDS011;9556;49.374;19.446;2023-04-07T06:22:02;8.50;;;4.23;;
18853;SDS011;9556;49.374;19.446;2023-04-07T06:24:31;12.03;;;4.60;;
18853;SDS011;9556;49.374;19.446;2023-04-07T06:26:59;9.73;;;4.20;;
18853;SDS011;9556;49.374;19.446;2023-04-07T06:29:27;40.00;;;5.23;;
18853;SDS011;9556;49.374;19.446;2023-04-07T06:31:54;10.07;;;4.93;;
18853;SDS011;9556;49.374;19.446;2023-04-07T06:34:22;10.87;;;4.77;;
18853;SDS011;9556;49.374;19.446;2023-04-07T06:36:49;12.73;;;4.67;;
18853;SDS011;9556;49.374;19.446;2023-04-07T06:39:16;9.77;;;3.90;;
18853;SDS011;9556;49.374;19.446;2023-04-07T06:41:45;9.70;;;4.53;;
18853;SDS011;9556;49.374;19.446;2023-04-07T06:44:12;14.30;;;4.77;;
18853;SDS011;9556;49.374;19.446;2023-04-07T06:46:40;10.23;;;5.47;;
18853;SDS011;9556;49.374;19.446;2023-04-07T06:49:08;12.97;;;5.33;;
18853;SDS011;9556;49.374;19.446;2023-04-07T06:51:36;9.07;;;5.83;;
18853;SDS011;9556;49.374;19.446;2023-04-07T06:54:03;16.77;;;7.03;;
18853;SDS011;9556;49.374;19.446;2023-04-07T06:56:31;18.70;;;8.80;;
18853;SDS011;9556;49.374;19.446;2023-04-07T06:59:00;22.10;;;10.07;;
18853;SDS011;9556;49.374;19.446;2023-04-07T07:01:27;24.47;;;11.17;;
18853;SDS011;9556;49.374;19.446;2023-04-07T07:03:55;19.43;;;8.93;;
18853;SDS011;9556;49.374;19.446;2023-04-07T07:06:22;22.37;;;13.20;;
18853;SDS011;9556;49.374;19.446;2023-04-07T07:08:50;20.90;;;12.57;;
18853;SDS011;9556;49.374;19.446;2023-04-07T07:11:17;36.40;;;20.30;;
18853;SDS011;9556;49.374;19.446;2023-04-07T07:13:44;28.47;;;14.50;;
18853;SDS011;9556;49.374;19.446;2023-04-07T07:16:13;20.37;;;10.70;;
18853;SDS011;9556;49.374;19.446;2023-04-07T07:18:40;27.93;;;9.13;;
18853;SDS011;9556;49.374;19.446;2023-04-07T07:21:07;16.03;;;8.00;;
18853;SDS011;9556;49.374;19.446;2023-04-07T07:23:34;17.27;;;8.13;;
18853;SDS011;9556;49.374;19.446;2023-04-07T07:26:02;33.77;;;7.53;;
18853;SDS011;9556;49.374;19.446;2023-04-07T07:28:29;15.73;;;6.40;;
18853;SDS011;9556;49.374;19.446;2023-04-07T07:30:56;11.87;;;6.93;;
18853;SDS011;9556;49.374;19.446;2023-04-07T07:33:25;11.73;;;6.63;;
18853;SDS011;9556;49.374;19.446;2023-04-07T07:35:52;14.70;;;6.90;;
18853;SDS011;9556;49.374;19.446;2023-04-07T07:38:19;19.57;;;8.67;;
18853;SDS011;9556;49.374;19.446;2023-04-07T07:40:46;13.93;;;7.67;;
18853;SDS011;9556;49.374;19.446;2023-04-07T07:43:13;10.40;;;7.07;;
18853;SDS011;9556;49.374;19.446;2023-04-07T07:45:42;12.63;;;6.90;;
18853;SDS011;9556;49.374;19.446;2023-04-07T07:48:09;14.63;;;6.80;;
18853;SDS011;9556;49.374;19.446;2023-04-07T07:50:38;11.80;;;6.20;;
18853;SDS011;9556;49.374;19.446;2023-04-07T07:53:05;11.97;;;6.70;;
18853;SDS011;9556;49.374;19.446;2023-04-07T07:55:32;12.80;;;6.90;;
18853;SDS011;9556;49.374;19.446;2023-04-07T07:57:59;12.60;;;5.73;;
18853;SDS011;9556;49.374;19.446;2023-04-07T08:00:26;15.07;;;6.43;;
18853;SDS011;9556;49.374;19.446;2023-04-07T08:02:53;9.23;;;5.20;;
18853;SDS011;9556;49.374;19.446;2023-04-07T08:05:21;9.17;;;5.10;;
18853;SDS011;9556;49.374;19.446;2023-04-07T08:07:49;10.53;;;5.27;;
18853;SDS011;9556;49.374;19.446;2023-04-07T08:10:17;12.73;;;5.70;;
18853;SDS011;9556;49.374;19.446;2023-04-07T08:12:44;13.17;;;5.63;;
18853;SDS011;9556;49.374;19.446;2023-04-07T08:15:11;9.23;;;6.10;;
18853;SDS011;9556;49.374;19.446;2023-04-07T08:17:38;26.97;;;6.07;;
18853;SDS011;9556;49.374;19.446;2023-04-07T08:20:06;14.33;;;5.60;;
18853;SDS011;9556;49.374;19.446;2023-04-07T08:22:34;9.90;;;5.50;;
18853;SDS011;9556;49.374;19.446;2023-04-07T08:25:03;14.73;;;6.00;;
18853;SDS011;9556;49.374;19.446;2023-04-07T08:27:30;12.37;;;5.40;;
18853;SDS011;9556;49.374;19.446;2023-04-07T08:29:59;14.57;;;5.93;;
18853;SDS011;9556;49.374;19.446;2023-04-07T08:32:32;11.70;;;5.60;;
18853;SDS011;9556;49.374;19.446;2023-04-07T08:34:59;17.30;;;5.67;;
18853;SDS011;9556;49.374;19.446;2023-04-07T08:37:27;16.23;;;5.43;;
18853;SDS011;9556;49.374;19.446;2023-04-07T08:39:54;16.00;;;5.73;;
18853;SDS011;9556;49.374;19.446;2023-04-07T08:42:23;11.90;;;5.30;;
18853;SDS011;9556;49.374;19.446;2023-04-07T08:44:52;14.13;;;5.77;;
18853;SDS011;9556;49.374;19.446;2023-04-07T08:47:20;16.30;;;5.43;;
18853;SDS011;9556;49.374;19.446;2023-04-07T08:49:50;11.30;;;5.60;;
18853;SDS011;9556;49.374;19.446;2023-04-07T08:52:19;13.03;;;5.60;;
18853;SDS011;9556;49.374;19.446;2023-04-07T08:54:48;13.23;;;5.77;;
18853;SDS011;9556;49.374;19.446;2023-04-07T08:57:17;17.70;;;5.23;;
18853;SDS011;9556;49.374;19.446;2023-04-07T08:59:46;18.40;;;4.93;;
18853;SDS011;9556;49.374;19.446;2023-04-07T09:02:16;13.90;;;5.40;;
18853;SDS011;9556;49.374;19.446;2023-04-07T09:04:43;12.93;;;5.80;;
18853;SDS011;9556;49.374;19.446;2023-04-07T09:07:11;7.87;;;4.97;;
18853;SDS011;9556;49.374;19.446;2023-04-07T09:09:38;16.17;;;5.00;;
18853;SDS011;9556;49.374;19.446;2023-04-07T09:12:06;7.30;;;4.67;;
18853;SDS011;9556;49.374;19.446;2023-04-07T09:14:33;11.33;;;5.17;;
18853;SDS011;9556;49.374;19.446;2023-04-07T09:17:01;12.43;;;4.70;;
18853;SDS011;9556;49.374;19.446;2023-04-07T09:19:29;12.03;;;4.63;;
18853;SDS011;9556;49.374;19.446;2023-04-07T09:21:56;15.93;;;5.30;;
18853;SDS011;9556;49.374;19.446;2023-04-07T09:24:23;11.67;;;4.73;;
18853;SDS011;9556;49.374;19.446;2023-04-07T09:26:54;14.30;;;5.20;;
18853;SDS011;9556;49.374;19.446;2023-04-07T09:29:34;9.57;;;4.53;;
18853;SDS011;9556;49.374;19.446;2023-04-07T09:32:03;16.23;;;5.17;;
18853;SDS011;9556;49.374;19.446;2023-04-07T09:34:31;13.50;;;5.00;;
18853;SDS011;9556;49.374;19.446;2023-04-07T09:36:59;9.83;;;4.47;;
18853;SDS011;9556;49.374;19.446;2023-04-07T09:39:26;21.13;;;5.10;;
18853;SDS011;9556;49.374;19.446;2023-04-07T09:41:54;18.63;;;5.10;;
18853;SDS011;9556;49.374;19.446;2023-04-07T09:44:21;8.93;;;4.73;;
18853;SDS011;9556;49.374;19.446;2023-04-07T09:46:49;11.83;;;5.27;;
18853;SDS011;9556;49.374;19.446;2023-04-07T09:49:18;11.87;;;5.13;;
18853;SDS011;9556;49.374;19.446;2023-04-07T09:51:52;12.70;;;5.00;;
18853;SDS011;9556;49.374;19.446;2023-04-07T09:54:31;16.90;;;5.93;;
18853;SDS011;9556;49.374;19.446;2023-04-07T09:56:59;18.95;;;5.93;;
18853;SDS011;9556;49.374;19.446;2023-04-07T09:59:27;21.70;;;5.83;;
18853;SDS011;9556;49.374;19.446;2023-04-07T10:01:54;14.97;;;6.03;;
18853;SDS011;9556;49.374;19.446;2023-04-07T10:04:23;10.53;;;5.37;;
18853;SDS011;9556;49.374;19.446;2023-04-07T10:06:51;14.33;;;7.10;;
18853;SDS011;9556;49.374;19.446;2023-04-07T10:09:19;16.50;;;6.00;;
18853;SDS011;9556;49.374;19.446;2023-04-07T10:11:46;13.00;;;5.80;;
18853;SDS011;9556;49.374;19.446;2023-04-07T10:14:14;14.50;;;5.43;;
18853;SDS011;9556;49.374;19.446;2023-04-07T10:16:41;16.67;;;5.57;;
18853;SDS011;9556;49.374;19.446;2023-04-07T10:19:09;15.40;;;5.40;;
18853;SDS011;9556;49.374;19.446;2023-04-07T10:21:39;18.57;;;6.17;;
18853;SDS011;9556;49.374;19.446;2023-04-07T10:24:08;16.37;;;5.60;;
18853;SDS011;9556;49.374;19.446;2023-04-07T10:26:44;24.77;;;5.80;;
18853;SDS011;9556;49.374;19.446;2023-04-07T10:29:12;26.43;;;5.40;;
18853;SDS011;9556;49.374;19.446;2023-04-07T10:31:42;18.07;;;5.60;;
18853;SDS011;9556;49.374;19.446;2023-04-07T10:34:09;13.27;;;5.33;;
18853;SDS011;9556;49.374;19.446;2023-04-07T10:36:42;19.37;;;5.93;;
18853;SDS011;9556;49.374;19.446;2023-04-07T10:39:29;14.60;;;5.50;;
18853;SDS011;9556;49.374;19.446;2023-04-07T10:41:56;17.93;;;5.40;;
18853;SDS011;9556;49.374;19.446;2023-04-07T10:47:08;190.90;;;103.57;;
18853;SDS011;9556;49.374;19.446;2023-04-07T10:49:36;160.40;;;85.30;;
18853;SDS011;9556;49.374;19.446;2023-04-07T10:52:23;127.50;;;69.13;;
18853;SDS011;9556;49.374;19.446;2023-04-07T10:57:35;110.17;;;54.23;;
18853;SDS011;9556;49.374;19.446;2023-04-07T11:02:47;94.30;;;51.50;;
18853;SDS011;9556;49.374;19.446;2023-04-07T11:05:18;92.10;;;50.83;;
18853;SDS011;9556;49.374;19.446;2023-04-07T11:07:51;70.53;;;40.77;;
18853;SDS011;9556;49.374;19.446;2023-04-07T11:10:26;59.03;;;35.63;;
18853;SDS011;9556;49.374;19.446;2023-04-07T11:13:00;58.67;;;33.83;;
18853;SDS011;9556;49.374;19.446;2023-04-07T11:15:28;54.07;;;32.93;;
18853;SDS011;9556;49.374;19.446;2023-04-07T11:18:11;53.27;;;31.73;;
18853;SDS011;9556;49.374;19.446;2023-04-07T11:20:40;57.20;;;33.03;;
18853;SDS011;9556;49.374;19.446;2023-04-07T11:23:08;66.43;;;38.33;;
18853;SDS011;9556;49.374;19.446;2023-04-07T11:25:36;86.43;;;40.07;;
18853;SDS011;9556;49.374;19.446;2023-04-07T11:28:03;74.10;;;36.47;;
18853;SDS011;9556;49.374;19.446;2023-04-07T11:30:31;66.47;;;35.60;;
18853;SDS011;9556;49.374;19.446;2023-04-07T11:32:58;56.90;;;29.43;;
18853;SDS011;9556;49.374;19.446;2023-04-07T11:35:25;57.17;;;30.20;;
18853;SDS011;9556;49.374;19.446;2023-04-07T11:37:59;69.00;;;31.63;;
18853;SDS011;9556;49.374;19.446;2023-04-07T11:40:32;55.67;;;30.40;;
18853;SDS011;9556;49.374;19.446;2023-04-07T11:43:00;60.37;;;31.93;;
18853;SDS011;9556;49.374;19.446;2023-04-07T11:45:28;56.53;;;31.00;;
18853;SDS011;9556;49.374;19.446;2023-04-07T11:47:55;59.67;;;31.03;;
18853;SDS011;9556;49.374;19.446;2023-04-07T11:50:40;56.70;;;30.07;;
18853;SDS011;9556;49.374;19.446;2023-04-07T11:53:08;54.37;;;29.00;;
18853;SDS011;9556;49.374;19.446;2023-04-07T11:55:37;55.30;;;29.33;;
18853;SDS011;9556;49.374;19.446;2023-04-07T11:58:04;56.53;;;29.00;;
18853;SDS011;9556;49.374;19.446;2023-04-07T12:00:34;52.27;;;29.20;;
18853;SDS011;9556;49.374;19.446;2023-04-07T12:03:08;49.30;;;27.47;;
18853;SDS011;9556;49.374;19.446;2023-04-07T12:05:41;57.57;;;27.90;;
18853;SDS011;9556;49.374;19.446;2023-04-07T12:08:08;43.33;;;23.83;;
18853;SDS011;9556;49.374;19.446;2023-04-07T12:10:36;41.47;;;22.95;;
18853;SDS011;9556;49.374;19.446;2023-04-07T12:13:05;38.47;;;21.50;;
18853;SDS011;9556;49.374;19.446;2023-04-07T12:15:32;40.87;;;20.17;;
18853;SDS011;9556;49.374;19.446;2023-04-07T12:18:00;37.90;;;19.97;;
18853;SDS011;9556;49.374;19.446;2023-04-07T12:20:28;35.23;;;20.73;;
18853;SDS011;9556;49.374;19.446;2023-04-07T12:22:55;49.97;;;23.47;;
18853;SDS011;9556;49.374;19.446;2023-04-07T12:25:24;41.93;;;23.17;;
18853;SDS011;9556;49.374;19.446;2023-04-07T12:27:52;44.50;;;22.50;;
18853;SDS011;9556;49.374;19.446;2023-04-07T12:30:20;42.93;;;22.07;;
18853;SDS011;9556;49.374;19.446;2023-04-07T12:32:47;38.33;;;22.03;;
18853;SDS011;9556;49.374;19.446;2023-04-07T12:35:14;46.83;;;21.63;;
18853;SDS011;9556;49.374;19.446;2023-04-07T12:37:41;38.80;;;21.00;;
18853;SDS011;9556;49.374;19.446;2023-04-07T12:40:09;44.53;;;21.73;;
18853;SDS011;9556;49.374;19.446;2023-04-07T12:42:37;43.87;;;20.17;;
18853;SDS011;9556;49.374;19.446;2023-04-07T12:45:06;41.90;;;20.63;;
18853;SDS011;9556;49.374;19.446;2023-04-07T12:47:33;34.13;;;19.73;;
18853;SDS011;9556;49.374;19.446;2023-04-07T12:50:01;37.63;;;19.77;;
18853;SDS011;9556;49.374;19.446;2023-04-07T12:52:30;38.43;;;20.13;;
18853;SDS011;9556;49.374;19.446;2023-04-07T12:54:57;36.17;;;18.87;;
18853;SDS011;9556;49.374;19.446;2023-04-07T12:57:24;35.70;;;18.77;;
18853;SDS011;9556;49.374;19.446;2023-04-07T12:59:51;35.23;;;18.50;;
18853;SDS011;9556;49.374;19.446;2023-04-07T13:02:20;33.23;;;17.60;;
18853;SDS011;9556;49.374;19.446;2023-04-07T13:04:47;40.87;;;17.07;;
18853;SDS011;9556;49.374;19.446;2023-04-07T13:07:14;36.30;;;14.43;;
18853;SDS011;9556;49.374;19.446;2023-04-07T13:09:42;30.10;;;14.10;;
18853;SDS011;9556;49.374;19.446;2023-04-07T13:12:09;25.63;;;13.60;;
18853;SDS011;9556;49.374;19.446;2023-04-07T13:14:36;23.83;;;13.20;;
18853;SDS011;9556;49.374;19.446;2023-04-07T13:17:04;22.60;;;13.07;;
18853;SDS011;9556;49.374;19.446;2023-04-07T13:19:33;25.73;;;13.10;;
18853;SDS011;9556;49.374;19.446;2023-04-07T13:22:01;25.93;;;12.57;;
18853;SDS011;9556;49.374;19.446;2023-04-07T13:24:30;26.33;;;12.83;;
18853;SDS011;9556;49.374;19.446;2023-04-07T13:26:57;27.83;;;13.43;;
18853;SDS011;9556;49.374;19.446;2023-04-07T13:29:25;25.73;;;12.63;;
18853;SDS011;9556;49.374;19.446;2023-04-07T13:31:52;26.47;;;13.50;;
18853;SDS011;9556;49.374;19.446;2023-04-07T13:34:19;34.57;;;13.33;;
18853;SDS011;9556;49.374;19.446;2023-04-07T13:36:48;33.10;;;13.50;;
18853;SDS011;9556;49.374;19.446;2023-04-07T13:39:15;27.00;;;13.07;;
18853;SDS011;9556;49.374;19.446;2023-04-07T13:41:42;27.27;;;12.57;;
18853;SDS011;9556;49.374;19.446;2023-04-07T13:44:09;27.10;;;12.87;;
18853;SDS011;9556;49.374;19.446;2023-04-07T13:46:37;23.80;;;12.80;;
18853;SDS011;9556;49.374;19.446;2023-04-07T13:49:04;23.77;;;12.60;;
18853;SDS011;9556;49.374;19.446;2023-04-07T13:51:31;23.90;;;12.90;;
18853;SDS011;9556;49.374;19.446;2023-04-07T13:54:00;24.87;;;12.73;;
18853;SDS011;9556;49.374;19.446;2023-04-07T13:56:27;27.00;;;12.27;;
18853;SDS011;9556;49.374;19.446;2023-04-07T13:58:55;26.80;;;12.67;;
18853;SDS011;9556;49.374;19.446;2023-04-07T14:01:22;25.73;;;11.87;;
18853;SDS011;9556;49.374;19.446;2023-04-07T14:03:49;22.37;;;11.37;;
18853;SDS011;9556;49.374;19.446;2023-04-07T14:06:17;22.73;;;12.43;;
18853;SDS011;9556;49.374;19.446;2023-04-07T14:08:46;21.83;;;12.57;;
18853;SDS011;9556;49.374;19.446;2023-04-07T14:11:16;21.93;;;12.03;;
18853;SDS011;9556;49.374;19.446;2023-04-07T14:13:43;20.57;;;11.73;;
18853;SDS011;9556;49.374;19.446;2023-04-07T14:16:13;21.13;;;11.70;;
18853;SDS011;9556;49.374;19.446;2023-04-07T14:18:40;19.83;;;11.43;;
18853;SDS011;9556;49.374;19.446;2023-04-07T14:21:07;20.77;;;11.23;;
18853;SDS011;9556;49.374;19.446;2023-04-07T14:23:35;23.70;;;12.10;;
18853;SDS011;9556;49.374;19.446;2023-04-07T14:26:03;19.90;;;11.83;;
18853;SDS011;9556;49.374;19.446;2023-04-07T14:28:31;20.80;;;10.57;;
18853;SDS011;9556;49.374;19.446;2023-04-07T14:30:58;18.33;;;11.30;;
18853;SDS011;9556;49.374;19.446;2023-04-07T14:33:26;23.23;;;11.50;;
18853;SDS011;9556;49.374;19.446;2023-04-07T14:35:53;22.97;;;11.00;;
18853;SDS011;9556;49.374;19.446;2023-04-07T14:38:20;21.63;;;11.27;;
18853;SDS011;9556;49.374;19.446;2023-04-07T14:40:49;29.00;;;11.67;;
18853;SDS011;9556;49.374;19.446;2023-04-07T14:43:17;25.60;;;12.43;;
18853;SDS011;9556;49.374;19.446;2023-04-07T14:45:45;29.17;;;13.03;;
18853;SDS011;9556;49.374;19.446;2023-04-07T14:48:12;40.70;;;21.00;;
18853;SDS011;9556;49.374;19.446;2023-04-07T14:50:41;67.03;;;24.23;;
18853;SDS011;9556;49.374;19.446;2023-04-07T14:53:08;56.73;;;24.10;;